Time;durP1;ratioP1;P1;durP2;ratioP2;P2;SDS_P1;SDS_P2;PMS_P1;PMS_P2;Temp;Humidity;BMP_temperature;BMP_pressure;BME280_temperature;BME280_humidity;BME280_pressure;Samples;Min_cycle;Max_cycle;Signal;HPM_P1;HPM_P2
2022/05/08 00:00:16;;;;;;;6.03;5.43;;;22.10;51.20;;;;;;4994236;28;20406;-62
2022/05/08 00:02:42;;;;;;;6.55;5.85;;;22.10;51.30;;;;;;4994632;28;20908;-62
2022/05/08 00:05:09;;;;;;;6.53;5.80;;;22.10;51.10;;;;;;4994570;28;20383;-62
2022/05/08 00:07:35;;;;;;;6.63;5.80;;;22.10;51.20;;;;;;4994537;28;20449;-62
2022/05/08 00:10:00;;;;;;;6.28;5.65;;;22.10;51.20;;;;;;4994536;28;20441;-62
2022/05/08 00:12:26;;;;;;;6.53;5.93;;;22.10;51.10;;;;;;4993818;28;20488;-62
2022/05/08 00:14:52;;;;;;;6.18;5.57;;;22.00;51.20;;;;;;4994430;28;20390;-62
2022/05/08 00:17:19;;;;;;;6.07;5.57;;;22.00;51.20;;;;;;4993663;28;20481;-62
2022/05/08 00:19:47;;;;;;;6.53;5.70;;;22.00;51.20;;;;;;4994425;28;20390;-62
2022/05/08 00:22:13;;;;;;;6.40;5.80;;;22.00;51.20;;;;;;4994023;28;20402;-62
2022/05/08 00:24:39;;;;;;;6.05;5.40;;;22.00;51.20;;;;;;4994249;28;20394;-63
2022/05/08 00:27:05;;;;;;;6.23;5.63;;;22.00;51.10;;;;;;4994076;28;20441;-63
2022/05/08 00:29:31;;;;;;;5.90;5.35;;;22.00;51.40;;;;;;4994270;28;20799;-62
2022/05/08 00:31:56;;;;;;;7.40;5.93;;;22.00;51.40;;;;;;4993831;28;20882;-62
2022/05/08 00:34:22;;;;;;;6.27;5.67;;;22.00;51.30;;;;;;4993495;28;20440;-62
2022/05/08 00:36:48;;;;;;;6.60;5.97;;;22.00;51.30;;;;;;4993970;28;20473;-62
2022/05/08 00:39:18;;;;;;;6.47;5.88;;;22.00;51.30;;;;;;4993938;28;20485;-62
2022/05/08 00:41:45;;;;;;;6.47;5.78;;;22.00;51.20;;;;;;5008824;28;20492;-62
2022/05/08 00:44:11;;;;;;;6.22;5.63;;;22.00;51.40;;;;;;4992772;28;20869;-62
2022/05/08 00:46:37;;;;;;;6.38;5.70;;;22.00;51.20;;;;;;4993604;28;20414;-62
2022/05/08 00:49:02;;;;;;;6.57;5.97;;;22.00;51.30;;;;;;4993735;28;20485;-62
2022/05/08 00:51:28;;;;;;;5.70;5.20;;;22.00;51.20;;;;;;4993765;28;20416;-62
2022/05/08 00:53:57;;;;;;;6.78;6.13;;;22.00;52.00;;;;;;4993636;28;20484;-62
2022/05/08 00:56:23;;;;;;;6.33;5.73;;;21.90;51.20;;;;;;4993300;28;20387;-62
2022/05/08 00:58:54;;;;;;;6.32;5.72;;;21.90;51.20;;;;;;4993538;28;20391;-62
2022/05/08 01:01:20;;;;;;;6.28;5.68;;;21.90;51.20;;;;;;4993601;28;20469;-62
2022/05/08 01:03:46;;;;;;;6.30;5.70;;;21.90;51.10;;;;;;4993628;28;20406;-62
2022/05/08 01:06:14;;;;;;;6.40;5.80;;;21.90;51.00;;;;;;4993260;28;20425;-62
2022/05/08 01:08:43;;;;;;;6.70;6.10;;;21.90;51.30;;;;;;4993126;28;20426;-62
2022/05/08 01:11:09;;;;;;;6.95;6.25;;;21.90;51.20;;;;;;4993091;28;20409;-62
2022/05/08 01:13:36;;;;;;;6.57;5.90;;;21.90;51.70;;;;;;5008451;28;20514;-62
2022/05/08 01:16:01;;;;;;;6.88;6.18;;;21.90;51.20;;;;;;4993195;28;20391;-62
2022/05/08 01:18:27;;;;;;;7.00;6.30;;;21.90;51.20;;;;;;4992780;28;20727;-62
2022/05/08 01:20:53;;;;;;;6.68;6.07;;;21.90;51.20;;;;;;4993228;28;20811;-62
2022/05/08 01:23:21;;;;;;;7.03;6.32;;;21.90;51.20;;;;;;4993080;28;20481;-62
2022/05/08 01:25:51;;;;;;;6.20;5.70;;;21.90;51.20;;;;;;4993136;28;20394;-62
2022/05/08 01:28:18;;;;;;;6.38;5.82;;;21.90;51.30;;;;;;4992509;28;20509;-62
2022/05/08 01:30:45;;;;;;;6.65;6.05;;;21.90;51.30;;;;;;4993040;28;20398;-62
2022/05/08 01:33:11;;;;;;;6.45;5.85;;;21.90;51.10;;;;;;4992915;28;20773;-63
2022/05/08 01:35:38;;;;;;;6.43;5.93;;;21.90;51.10;;;;;;4992912;28;20387;-62
2022/05/08 01:38:05;;;;;;;6.82;6.15;;;21.90;51.10;;;;;;4992817;28;20390;-62
2022/05/08 01:40:31;;;;;;;6.80;6.10;;;21.90;51.40;;;;;;4992396;28;20398;-62
2022/05/08 01:42:57;;;;;;;6.63;6.03;;;21.80;51.20;;;;;;4992616;28;20441;-62
2022/05/08 01:45:23;;;;;;;6.70;6.10;;;21.90;51.20;;;;;;4992871;28;20464;-62
2022/05/08 01:50:34;;;;;;;6.10;5.60;;;21.80;51.10;;;;;;5005341;28;20461;-62
2022/05/08 01:53:00;;;;;;;6.10;5.60;;;21.80;51.20;;;;;;4992661;28;20870;-62
2022/05/08 01:55:26;;;;;;;6.25;5.65;;;21.80;51.10;;;;;;4992523;28;20784;-62
2022/05/08 01:57:53;;;;;;;6.50;5.90;;;21.80;51.20;;;;;;4992507;28;20391;-62
2022/05/08 02:00:22;;;;;;;6.77;6.17;;;21.80;51.20;;;;;;4992186;28;20386;-62
2022/05/08 02:02:49;;;;;;;6.30;5.70;;;21.80;51.20;;;;;;4992466;28;20398;-62
2022/05/08 02:05:20;;;;;;;6.63;6.03;;;21.80;51.20;;;;;;4992412;28;20394;-62
2022/05/08 02:07:47;;;;;;;6.00;5.50;;;21.80;51.40;;;;;;4992403;28;20603;-62
2022/05/08 02:10:14;;;;;;;6.70;6.10;;;21.80;51.40;;;;;;4992153;28;20413;-62
2022/05/08 02:12:40;;;;;;;6.28;5.68;;;21.80;51.30;;;;;;4992051;28;20509;-62
2022/05/08 02:15:08;;;;;;;6.60;6.00;;;21.80;51.50;;;;;;5007397;28;20436;-62
2022/05/08 02:17:34;;;;;;;7.15;6.55;;;21.80;51.50;;;;;;4992298;28;20430;-62
2022/05/08 02:20:00;;;;;;;6.93;6.32;;;21.80;51.30;;;;;;4992137;28;20940;-62
2022/05/08 02:22:26;;;;;;;6.63;6.03;;;21.80;51.30;;;;;;4991780;28;20493;-62
2022/05/08 02:24:52;;;;;;;6.10;5.50;;;21.80;51.20;;;;;;4992257;28;20395;-62
2022/05/08 02:27:17;;;;;;;6.35;5.80;;;21.80;51.20;;;;;;4991881;28;20449;-62
2022/05/08 02:29:49;;;;;;;6.77;6.07;;;21.80;51.40;;;;;;4992193;28;20855;-62
2022/05/08 02:32:15;;;;;;;6.40;5.80;;;21.80;51.30;;;;;;4991946;28;20398;-62
2022/05/08 02:34:41;;;;;;;6.68;6.07;;;21.80;51.30;;;;;;4991894;28;20771;-62
2022/05/08 02:37:07;;;;;;;6.50;5.90;;;21.70;51.30;;;;;;4991890;28;20433;-62
2022/05/08 02:39:32;;;;;;;6.37;5.80;;;21.70;51.50;;;;;;4992070;28;20517;-61
2022/05/08 02:41:58;;;;;;;6.40;5.80;;;21.80;51.40;;;;;;4992031;28;20755;-61
2022/05/08 02:44:24;;;;;;;7.60;6.40;;;21.80;51.30;;;;;;5006702;28;20426;-62
2022/05/08 02:46:49;;;;;;;6.70;6.10;;;21.80;51.30;;;;;;4991850;28;20493;-62
2022/05/08 02:49:15;;;;;;;7.00;6.30;;;21.70;51.20;;;;;;4992005;28;20858;-62
2022/05/08 02:51:41;;;;;;;6.72;6.10;;;21.70;51.10;;;;;;5006821;28;20485;-62
2022/05/08 02:54:07;;;;;;;6.43;5.82;;;21.70;51.30;;;;;;4991934;28;20422;-62
2022/05/08 02:59:16;;;;;;;6.22;5.68;;;21.70;51.20;;;;;;4991928;28;20370;-62
2022/05/08 03:01:42;;;;;;;6.97;6.37;;;21.70;51.30;;;;;;4991723;28;20478;-61
2022/05/08 03:04:08;;;;;;;6.80;6.20;;;21.70;51.50;;;;;;5006949;28;20402;-62
2022/05/08 03:06:33;;;;;;;6.85;6.25;;;21.70;51.40;;;;;;4993032;28;20402;-62
2022/05/08 03:08:59;;;;;;;6.97;6.38;;;21.70;51.40;;;;;;4995611;28;20889;-62
2022/05/08 03:11:25;;;;;;;6.50;5.90;;;21.70;51.40;;;;;;4995450;28;20453;-63
2022/05/08 03:13:51;;;;;;;7.13;6.53;;;21.70;51.40;;;;;;4995570;28;20402;-62
2022/05/08 03:16:17;;;;;;;6.43;5.82;;;21.70;52.10;;;;;;4995179;28;20390;-62
2022/05/08 03:18:45;;;;;;;6.60;6.00;;;21.70;51.50;;;;;;4995283;28;20740;-62
2022/05/08 03:21:12;;;;;;;6.63;6.03;;;21.70;51.40;;;;;;4995412;28;20391;-62
2022/05/08 03:23:42;;;;;;;6.63;6.03;;;21.70;51.60;;;;;;4995408;28;20441;-62
2022/05/08 03:26:08;;;;;;;6.75;6.15;;;21.70;51.70;;;;;;4995288;28;20391;-62
2022/05/08 03:28:35;;;;;;;6.65;6.00;;;21.70;51.70;;;;;;4994710;28;20882;-61
2022/05/08 03:31:02;;;;;;;6.32;5.72;;;21.70;51.90;;;;;;4995227;28;20409;-62
2022/05/08 03:33:28;;;;;;;6.75;6.13;;;21.70;51.70;;;;;;4995117;28;20390;-62
2022/05/08 03:35:54;;;;;;;6.60;6.00;;;21.70;51.70;;;;;;4995162;28;20401;-62
2022/05/08 03:38:20;;;;;;;6.63;6.03;;;21.70;51.70;;;;;;4994879;28;20390;-62
2022/05/08 03:40:46;;;;;;;6.75;6.15;;;21.60;51.70;;;;;;4994575;28;20391;-62
2022/05/08 03:43:11;;;;;;;6.30;5.80;;;21.60;51.60;;;;;;5010079;28;20776;-61
2022/05/08 03:45:37;;;;;;;6.65;6.05;;;21.60;51.60;;;;;;4994960;28;20456;-62
2022/05/08 03:48:03;;;;;;;6.27;5.73;;;21.60;51.60;;;;;;4994810;28;20418;-61
2022/05/08 03:50:29;;;;;;;7.13;6.45;;;21.60;51.50;;;;;;5009480;28;20802;-61
2022/05/08 03:52:56;;;;;;;6.70;6.10;;;21.60;51.60;;;;;;5009959;28;20414;-61
2022/05/08 03:55:22;;;;;;;6.50;5.90;;;21.60;51.70;;;;;;4994873;28;20429;-62
2022/05/08 03:57:48;;;;;;;7.00;6.30;;;21.60;51.60;;;;;;4994803;28;20426;-62
2022/05/08 04:00:15;;;;;;;6.60;6.00;;;21.60;51.50;;;;;;4994660;28;20924;-62
2022/05/08 04:02:41;;;;;;;6.80;6.20;;;21.60;51.50;;;;;;4993879;28;20441;-62
2022/05/08 04:05:07;;;;;;;6.90;6.30;;;21.60;51.60;;;;;;4993994;28;20382;-62
2022/05/08 04:07:33;;;;;;;6.57;5.93;;;21.60;51.70;;;;;;4994448;28;20426;-62
2022/05/08 04:09:59;;;;;;;7.40;6.70;;;21.60;51.70;;;;;;4994117;28;20944;-62
2022/05/08 04:12:26;;;;;;;7.00;6.40;;;21.60;51.60;;;;;;4994040;28;20429;-62
2022/05/08 04:14:52;;;;;;;6.65;6.05;;;21.60;51.50;;;;;;4994407;28;20393;-61
2022/05/08 04:17:17;;;;;;;7.20;6.50;;;21.60;51.50;;;;;;4993435;28;20394;-62
2022/05/08 04:19:43;;;;;;;6.30;5.70;;;21.60;51.50;;;;;;4993991;28;20886;-61
2022/05/08 04:24:53;;;;;;;6.63;6.07;;;21.60;51.70;;;;;;4994463;28;20381;-62
2022/05/08 04:27:19;;;;;;;7.47;6.75;;;21.50;51.40;;;;;;4994122;28;20497;-61
2022/05/08 04:29:45;;;;;;;6.75;6.15;;;21.60;51.60;;;;;;4994090;28;20770;-62
2022/05/08 04:32:11;;;;;;;6.95;6.35;;;21.50;51.60;;;;;;4994118;28;20383;-61
2022/05/08 04:34:36;;;;;;;7.00;6.30;;;21.60;51.60;;;;;;4993640;28;20402;-61
2022/05/08 04:37:03;;;;;;;7.33;6.63;;;21.60;51.60;;;;;;4993925;28;20399;-62
2022/05/08 04:39:29;;;;;;;6.70;6.10;;;21.50;51.50;;;;;;4993988;28;20428;-61
2022/05/08 04:41:54;;;;;;;7.00;6.35;;;21.50;51.40;;;;;;4993946;28;20434;-62
2022/05/08 04:44:21;;;;;;;7.20;6.60;;;21.50;51.70;;;;;;4993815;28;20460;-62
2022/05/08 04:46:46;;;;;;;6.85;6.25;;;21.50;51.70;;;;;;4993562;28;20406;-62
2022/05/08 04:49:12;;;;;;;7.37;6.67;;;21.50;51.80;;;;;;4993626;28;20395;-62
2022/05/08 04:51:38;;;;;;;7.32;6.72;;;21.50;51.80;;;;;;4993804;28;20390;-62
2022/05/08 04:54:04;;;;;;;7.57;6.88;;;21.50;51.70;;;;;;4993675;28;20402;-62
2022/05/08 04:56:30;;;;;;;7.10;6.50;;;21.50;51.50;;;;;;4993141;28;20747;-61
2022/05/08 04:58:56;;;;;;;6.82;6.13;;;21.50;51.80;;;;;;4993562;28;20870;-61
2022/05/08 05:01:22;;;;;;;6.90;6.30;;;21.50;51.80;;;;;;4993593;28;20490;-62
2022/05/08 05:03:49;;;;;;;6.82;6.22;;;21.50;51.80;;;;;;4993513;28;20433;-62
2022/05/08 05:06:15;;;;;;;6.93;6.22;;;21.50;51.80;;;;;;4993609;28;20397;-62
2022/05/08 05:08:41;;;;;;;6.47;5.97;;;21.50;51.80;;;;;;4992856;28;20933;-62
2022/05/08 05:11:08;;;;;;;7.10;6.47;;;21.50;51.90;;;;;;4993086;28;20873;-62
2022/05/08 05:13:38;;;;;;;7.93;6.75;;;21.50;51.80;;;;;;4993325;28;20410;-61
2022/05/08 05:16:05;;;;;;;7.13;6.47;;;21.50;51.90;;;;;;4993249;28;20390;-62
2022/05/08 05:18:30;;;;;;;6.93;6.32;;;21.50;51.90;;;;;;4992779;28;20756;-61
2022/05/08 05:20:56;;;;;;;7.50;6.90;;;21.50;51.80;;;;;;4993107;28;20395;-62
2022/05/08 05:23:22;;;;;;;6.27;5.67;;;21.50;51.80;;;;;;4993172;28;20394;-61
2022/05/08 05:25:49;;;;;;;6.90;6.30;;;21.50;51.80;;;;;;4993128;28;20430;-61
2022/05/08 05:28:15;;;;;;;6.90;6.30;;;21.50;51.80;;;;;;4992797;28;20415;-61
2022/05/08 05:30:41;;;;;;;7.13;6.43;;;21.50;51.80;;;;;;4992162;28;20397;-62
2022/05/08 05:33:07;;;;;;;7.15;6.45;;;21.50;51.70;;;;;;4992666;28;20398;-61
2022/05/08 05:35:38;;;;;;;6.82;6.22;;;21.50;51.80;;;;;;5008061;28;20406;-61
2022/05/08 05:38:04;;;;;;;7.07;6.43;;;21.50;51.90;;;;;;4992775;28;20902;-62
2022/05/08 05:40:30;;;;;;;6.97;6.27;;;21.50;51.90;;;;;;4992649;28;20391;-62
2022/05/08 05:42:57;;;;;;;7.10;6.40;;;21.40;51.70;;;;;;4992726;28;20442;-62
2022/05/08 05:45:23;;;;;;;7.00;6.30;;;21.50;51.60;;;;;;4992831;28;20477;-62
2022/05/08 05:47:49;;;;;;;6.90;6.20;;;21.50;51.90;;;;;;5007400;28;20418;-63
2022/05/08 05:50:25;;;;;;;7.40;6.70;;;21.50;51.60;;;;;;4992509;28;20382;-62
2022/05/08 05:52:52;;;;;;;6.82;6.22;;;21.50;51.70;;;;;;4992457;28;20721;-62
2022/05/08 05:55:18;;;;;;;7.18;6.47;;;21.50;51.90;;;;;;4992575;28;20485;-62
2022/05/08 05:57:44;;;;;;;7.50;6.70;;;21.50;51.90;;;;;;4992433;28;20434;-62
2022/05/08 06:00:12;;;;;;;7.20;6.50;;;21.50;51.70;;;;;;4992295;28;20476;-63
2022/05/08 06:02:40;;;;;;;7.50;6.70;;;21.50;51.80;;;;;;5008519;28;20399;-61
2022/05/08 06:05:06;;;;;;;8.77;7.88;;;21.50;52.20;;;;;;5005400;28;20389;-62
2022/05/08 06:07:33;;;;;;;8.27;6.93;;;21.50;52.10;;;;;;4988892;28;20427;-61
2022/05/08 06:09:59;;;;;;;10.98;8.98;;;21.50;51.90;;;;;;4987446;28;20889;-61
2022/05/08 06:12:25;;;;;;;12.40;10.63;;;21.50;53.20;;;;;;4990000;28;20426;-61
2022/05/08 06:14:50;;;;;;;9.30;8.30;;;21.50;54.20;;;;;;4992171;28;20470;-61
2022/05/08 06:17:16;;;;;;;10.18;8.43;;;21.50;53.80;;;;;;4992168;28;20418;-61
2022/05/08 06:19:42;;;;;;;10.40;8.47;;;21.50;54.20;;;;;;4992231;28;20473;-62
2022/05/08 06:22:08;;;;;;;10.13;9.05;;;21.50;54.70;;;;;;4992041;28;20398;-62
2022/05/08 06:24:35;;;;;;;8.83;7.60;;;21.50;54.60;;;;;;4991799;28;20386;-61
2022/05/08 06:27:00;;;;;;;9.77;7.88;;;21.50;54.50;;;;;;4988723;28;20412;-63
2022/05/08 06:29:26;;;;;;;8.57;7.68;;;21.60;54.80;;;;;;4986270;28;20854;-63
2022/05/08 06:31:52;;;;;;;8.77;7.63;;;21.60;54.60;;;;;;5007438;28;20393;-62
2022/05/08 06:34:18;;;;;;;8.98;7.85;;;21.60;54.60;;;;;;4992114;28;20398;-62
2022/05/08 06:36:44;;;;;;;11.23;7.88;;;21.60;54.30;;;;;;4991569;28;20421;-61
2022/05/08 06:39:10;;;;;;;10.95;7.88;;;21.60;54.30;;;;;;4991915;28;20476;-62
2022/05/08 06:41:39;;;;;;;9.93;8.93;;;21.60;54.30;;;;;;4993724;28;20748;-62
2022/05/08 06:44:04;;;;;;;12.07;8.55;;;21.60;54.60;;;;;;4995692;28;20442;-63
2022/05/08 06:46:32;;;;;;;11.52;8.75;;;21.60;54.30;;;;;;4996790;28;20418;-63
2022/05/08 06:48:58;;;;;;;8.88;7.20;;;21.60;54.50;;;;;;4984164;28;20407;-62
2022/05/08 06:51:24;;;;;;;12.90;7.85;;;21.60;54.20;;;;;;4986777;28;20398;-62
2022/05/08 06:53:49;;;;;;;11.83;7.77;;;21.60;54.00;;;;;;4983886;28;20392;-62
2022/05/08 06:56:16;;;;;;;11.45;7.60;;;21.60;53.80;;;;;;4984099;28;20870;-63
2022/05/08 07:01:36;;;;;;;9.48;8.15;;;21.60;53.70;;;;;;4996078;28;20424;-63
2022/05/08 07:04:09;;;;;;;9.57;8.00;;;21.60;53.50;;;;;;4995638;28;20437;-63
2022/05/08 07:06:36;;;;;;;9.45;8.55;;;21.60;53.60;;;;;;4991965;28;20948;-62
2022/05/08 07:09:03;;;;;;;10.18;8.27;;;21.60;53.40;;;;;;4975989;28;20415;-62
2022/05/08 07:11:30;;;;;;;12.15;9.10;;;21.60;53.90;;;;;;4975946;28;20495;-62
2022/05/08 07:13:56;;;;;;;10.65;8.00;;;21.60;54.30;;;;;;4975854;28;20404;-63
2022/05/08 07:16:22;;;;;;;9.02;8.10;;;21.60;54.30;;;;;;4975974;28;20399;-62
2022/05/08 07:18:48;;;;;;;10.93;8.53;;;21.60;54.10;;;;;;4979427;28;20394;-62
2022/05/08 07:21:13;;;;;;;12.70;7.60;;;21.60;54.20;;;;;;4994527;28;20402;-62
2022/05/08 07:23:39;;;;;;;9.73;7.50;;;21.60;54.10;;;;;;4994569;28;20490;-64
2022/05/08 07:26:06;;;;;;;11.57;7.65;;;21.60;53.50;;;;;;4994317;28;20402;-62
2022/05/08 07:28:32;;;;;;;10.80;7.55;;;21.60;53.70;;;;;;4994031;28;20468;-61
2022/05/08 07:30:57;;;;;;;11.38;7.85;;;21.60;53.00;;;;;;4993923;28;20391;-63
2022/05/08 07:33:23;;;;;;;10.67;7.60;;;21.60;52.70;;;;;;4994317;28;20401;-62
2022/05/08 07:38:33;;;;;;;14.00;8.82;;;21.60;54.00;;;;;;4994515;28;20916;-62
2022/05/08 07:40:59;;;;;;;16.97;12.57;;;21.60;53.30;;;;;;5009897;28;20398;-62
2022/05/08 07:43:25;;;;;;;15.75;9.40;;;21.60;53.50;;;;;;4995062;28;20758;-63
2022/05/08 07:45:51;;;;;;;14.77;9.00;;;21.50;54.30;;;;;;4994648;28;20756;-62
2022/05/08 07:48:17;;;;;;;14.52;9.40;;;21.60;54.30;;;;;;4994891;28;20778;-62
2022/05/08 07:50:45;;;;;;;14.90;8.98;;;21.50;54.10;;;;;;4994467;28;20481;-62
2022/05/08 07:53:12;;;;;;;10.55;8.60;;;21.60;54.10;;;;;;4987933;28;20457;-62
2022/05/08 07:55:38;;;;;;;12.57;8.60;;;21.50;53.80;;;;;;4994908;28;20468;-62
2022/05/08 07:58:04;;;;;;;10.15;8.18;;;21.50;54.00;;;;;;4994813;28;20879;-62
2022/05/08 08:00:29;;;;;;;11.38;8.32;;;21.50;54.00;;;;;;5009794;28;20461;-62
2022/05/08 08:02:55;;;;;;;9.43;8.40;;;21.50;53.90;;;;;;4994038;28;20754;-62
2022/05/08 08:05:21;;;;;;;9.93;8.02;;;21.60;53.80;;;;;;4989136;28;20961;-62
2022/05/08 08:07:47;;;;;;;8.95;8.00;;;21.50;53.70;;;;;;4981927;28;20432;-63
2022/05/08 08:10:13;;;;;;;10.83;8.13;;;21.60;53.70;;;;;;4984815;28;20790;-62
2022/05/08 08:12:39;;;;;;;13.85;7.88;;;21.60;53.70;;;;;;4982647;28;20831;-62
2022/05/08 08:15:06;;;;;;;11.40;7.80;;;21.60;53.70;;;;;;4982653;28;20936;-62
2022/05/08 08:17:31;;;;;;;9.27;7.80;;;21.60;53.70;;;;;;4984368;28;20398;-62
2022/05/08 08:19:57;;;;;;;11.45;7.85;;;21.60;53.60;;;;;;4992879;28;20429;-62
2022/05/08 08:22:23;;;;;;;8.73;7.45;;;21.60;53.70;;;;;;4990058;28;20432;-62
2022/05/08 08:24:49;;;;;;;7.97;7.20;;;21.60;53.60;;;;;;4984124;28;20485;-62
2022/05/08 08:27:16;;;;;;;9.43;7.97;;;21.50;53.50;;;;;;4983971;28;20518;-63
2022/05/08 08:29:42;;;;;;;8.10;7.25;;;21.50;53.40;;;;;;4983689;28;20446;-62
2022/05/08 08:32:08;;;;;;;8.77;7.50;;;21.60;53.50;;;;;;4981276;28;20396;-62
2022/05/08 08:34:34;;;;;;;8.13;7.20;;;21.60;53.40;;;;;;4983407;28;20425;-62
2022/05/08 08:36:59;;;;;;;8.33;7.53;;;21.60;53.40;;;;;;4985268;28;20403;-62
2022/05/08 08:39:25;;;;;;;9.07;7.10;;;21.60;53.50;;;;;;4983465;28;20411;-63
2022/05/08 08:42:12;;;;;;;8.10;7.30;;;21.60;53.50;;;;;;4993357;28;20464;-63
2022/05/08 08:47:43;;;;;;;7.93;7.13;;;21.60;53.60;;;;;;4993748;28;20421;-62
2022/05/08 08:50:09;;;;;;;8.00;6.65;;;21.60;53.80;;;;;;4993638;28;20390;-62
2022/05/08 08:52:36;;;;;;;8.48;6.95;;;21.60;53.70;;;;;;4993609;28;20399;-62
2022/05/08 08:55:04;;;;;;;7.00;6.35;;;21.60;54.30;;;;;;4993372;28;20470;-62
2022/05/08 08:57:29;;;;;;;7.47;6.78;;;21.60;53.70;;;;;;4993694;28;20398;-62
2022/05/08 08:59:55;;;;;;;7.53;6.83;;;21.60;53.60;;;;;;4993330;28;20394;-62
2022/05/08 09:02:21;;;;;;;7.18;6.47;;;21.60;53.50;;;;;;4993581;28;20390;-62
2022/05/08 09:04:49;;;;;;;9.05;7.20;;;21.60;53.40;;;;;;4992198;28;20397;-62
2022/05/08 09:07:33;;;;;;;7.80;7.05;;;21.60;53.30;;;;;;4993338;28;20423;-62
2022/05/08 09:10:15;;;;;;;7.50;6.72;;;21.60;53.00;;;;;;4993186;28;20454;-62
2022/05/08 09:13:01;;;;;;;7.23;6.53;;;21.60;53.30;;;;;;4991946;28;20867;-62
2022/05/08 09:15:27;;;;;;;7.03;6.38;;;21.60;53.00;;;;;;4992292;28;20393;-62
2022/05/08 09:17:56;;;;;;;7.10;6.40;;;21.60;52.80;;;;;;4992310;28;20542;-62
2022/05/08 09:20:26;;;;;;;7.18;6.47;;;21.60;52.80;;;;;;4992279;28;20387;-62
2022/05/08 09:23:14;;;;;;;7.30;6.60;;;21.60;52.60;;;;;;4991769;28;20395;-62
2022/05/08 09:25:56;;;;;;;6.90;6.30;;;21.60;52.60;;;;;;4990871;28;20390;-62
2022/05/08 09:28:25;;;;;;;7.40;6.70;;;21.60;52.40;;;;;;4992081;28;20469;-62
2022/05/08 09:30:59;;;;;;;15.30;9.05;;;21.60;52.50;;;;;;4991628;28;20465;-62
2022/05/08 09:33:30;;;;;;;13.65;9.85;;;21.60;52.60;;;;;;4992138;28;20409;-62
2022/05/08 09:35:57;;;;;;;15.82;11.35;;;21.60;53.40;;;;;;4991800;28;20391;-62
2022/05/08 09:38:39;;;;;;;15.45;10.90;;;21.50;53.70;;;;;;4992009;28;20799;-62
2022/05/08 09:41:06;;;;;;;15.57;10.93;;;21.50;53.90;;;;;;4991638;28;20788;-62
2022/05/08 09:43:34;;;;;;;17.90;10.95;;;21.50;54.10;;;;;;4992342;28;20390;-62
2022/05/08 09:46:01;;;;;;;16.80;10.25;;;21.50;53.30;;;;;;4992158;28;20766;-62
2022/05/08 09:48:33;;;;;;;11.25;7.55;;;21.60;54.80;;;;;;4991999;28;20426;-62
2022/05/08 09:51:01;;;;;;;11.60;8.48;;;21.70;56.10;;;;;;4991907;28;20532;-62
2022/05/08 09:53:27;;;;;;;11.27;9.27;;;21.80;55.70;;;;;;4991611;28;20397;-62
2022/05/08 09:55:58;;;;;;;15.38;9.32;;;21.80;54.70;;;;;;4991662;28;20485;-62
2022/05/08 09:58:24;;;;;;;12.25;9.10;;;21.90;55.20;;;;;;4991836;28;20414;-62
2022/05/08 10:00:52;;;;;;;10.77;8.60;;;22.00;55.30;;;;;;4991343;28;20390;-61
2022/05/08 10:03:19;;;;;;;10.90;8.20;;;22.00;55.00;;;;;;4991503;28;20404;-62
2022/05/08 10:05:45;;;;;;;13.55;8.52;;;22.00;55.10;;;;;;4991444;28;20855;-63
2022/05/08 10:08:25;;;;;;;12.75;8.32;;;22.00;55.00;;;;;;4990656;28;20425;-62
2022/05/08 10:14:08;;;;;;;11.05;8.57;;;22.10;54.90;;;;;;4992384;28;20406;-62
2022/05/08 10:16:45;;;;;;;11.23;7.97;;;22.10;54.80;;;;;;4992059;28;20909;-61
2022/05/08 10:19:31;;;;;;;14.05;8.35;;;22.10;54.30;;;;;;4992688;28;21090;-62
2022/05/08 10:22:06;;;;;;;13.13;7.93;;;22.00;54.20;;;;;;4996174;28;20434;-62
2022/05/08 10:24:51;;;;;;;10.35;7.53;;;22.00;54.70;;;;;;4992950;28;20399;-62
2022/05/08 10:27:23;;;;;;;10.25;7.68;;;22.00;54.80;;;;;;4993016;28;20417;-61
2022/05/08 10:29:52;;;;;;;10.02;8.20;;;22.00;54.80;;;;;;4991884;28;20383;-62
2022/05/08 10:32:33;;;;;;;10.18;7.60;;;22.00;54.80;;;;;;4991414;28;20394;-62
2022/05/08 10:35:22;;;;;;;10.13;7.70;;;22.00;54.70;;;;;;4991190;28;20474;-62
2022/05/08 10:38:03;;;;;;;10.98;7.10;;;22.00;54.70;;;;;;4991016;28;20386;-62
2022/05/08 10:40:29;;;;;;;8.50;7.10;;;22.00;54.60;;;;;;4991341;28;20382;-62
2022/05/08 10:43:25;;;;;;;9.60;7.28;;;22.00;54.60;;;;;;4990548;28;20406;-61
2022/05/08 10:45:51;;;;;;;10.43;7.22;;;22.10;54.30;;;;;;4990234;28;20391;-62
2022/05/08 10:48:18;;;;;;;8.07;7.28;;;22.00;53.90;;;;;;4991953;28;20441;-62
2022/05/08 10:50:52;;;;;;;8.93;7.40;;;22.00;53.70;;;;;;4991242;28;20878;-63
2022/05/08 10:53:35;;;;;;;9.23;7.10;;;21.90;53.60;;;;;;4991753;28;20398;-61
2022/05/08 10:56:10;;;;;;;9.77;7.70;;;21.90;53.60;;;;;;4992035;28;20387;-61
2022/05/08 10:58:37;;;;;;;9.80;7.65;;;22.00;53.70;;;;;;4990960;28;20429;-62
2022/05/08 11:01:06;;;;;;;9.63;7.47;;;21.90;53.50;;;;;;4990071;28;20383;-62
2022/05/08 11:03:35;;;;;;;8.02;7.32;;;21.90;53.60;;;;;;4992080;28;20400;-62
2022/05/08 11:06:02;;;;;;;8.50;7.30;;;21.90;53.50;;;;;;4990559;28;20933;-62
2022/05/08 11:08:29;;;;;;;10.15;7.25;;;21.90;53.60;;;;;;4991361;28;20910;-61
2022/05/08 11:10:59;;;;;;;8.07;7.20;;;22.00;53.70;;;;;;4990929;28;20477;-62
2022/05/08 11:13:26;;;;;;;7.70;6.90;;;21.90;53.50;;;;;;4991422;28;20406;-61
2022/05/08 11:15:52;;;;;;;11.05;7.65;;;22.00;53.30;;;;;;4991037;28;20394;-62
2022/05/08 11:18:22;;;;;;;8.65;7.30;;;21.90;52.90;;;;;;4991454;28;20430;-62
2022/05/08 11:20:50;;;;;;;10.63;7.68;;;21.90;52.80;;;;;;4991185;28;20448;-62
2022/05/08 11:23:18;;;;;;;10.90;7.20;;;21.90;52.80;;;;;;4991247;28;20398;-62
2022/05/08 11:25:52;;;;;;;12.27;7.93;;;21.90;52.80;;;;;;4990916;28;20398;-62
2022/05/08 11:28:20;;;;;;;9.30;7.32;;;21.90;52.70;;;;;;4993735;28;20450;-62
2022/05/08 11:30:47;;;;;;;9.73;7.65;;;21.90;53.30;;;;;;4995530;28;20429;-62
2022/05/08 11:36:06;;;;;;;9.65;7.05;;;21.80;52.50;;;;;;4994843;28;20397;-62
2022/05/08 11:38:50;;;;;;;10.45;7.60;;;21.80;52.30;;;;;;4994884;28;20387;-62
2022/05/08 11:41:16;;;;;;;7.83;6.80;;;21.90;52.20;;;;;;4995664;28;20818;-62
2022/05/08 11:43:46;;;;;;;8.13;6.65;;;21.80;51.70;;;;;;4994700;28;20399;-62
2022/05/08 11:46:15;;;;;;;8.20;7.03;;;21.80;51.60;;;;;;4994570;28;20427;-63
2022/05/08 11:48:49;;;;;;;7.80;6.97;;;21.80;51.50;;;;;;4994570;28;20456;-62
2022/05/08 11:51:20;;;;;;;7.88;6.93;;;21.80;51.80;;;;;;4994486;28;20947;-62
2022/05/08 11:53:51;;;;;;;8.05;7.25;;;21.80;51.70;;;;;;4995075;28;20398;-62
2022/05/08 11:56:27;;;;;;;8.23;6.90;;;21.80;52.00;;;;;;4994460;28;20391;-62
2022/05/08 11:59:17;;;;;;;8.02;7.05;;;21.80;52.00;;;;;;4993903;28;20398;-62
2022/05/08 12:01:53;;;;;;;7.75;6.95;;;21.80;52.20;;;;;;4994027;28;20390;-62
2022/05/08 12:04:26;;;;;;;7.80;7.00;;;21.80;52.30;;;;;;5009220;28;20910;-62
2022/05/08 12:07:12;;;;;;;8.23;7.40;;;21.80;52.30;;;;;;4993554;28;20422;-62
2022/05/08 12:09:41;;;;;;;7.47;6.75;;;21.80;52.30;;;;;;5009260;28;20819;-62
2022/05/08 12:12:29;;;;;;;7.60;6.82;;;21.80;52.30;;;;;;4994013;28;20410;-62
2022/05/08 12:15:18;;;;;;;8.18;7.38;;;21.80;52.60;;;;;;4973882;28;20400;-62
2022/05/08 12:17:43;;;;;;;7.53;6.70;;;21.80;52.60;;;;;;4989222;28;20396;-62
2022/05/08 12:20:13;;;;;;;8.43;7.57;;;21.80;52.70;;;;;;4989252;28;20409;-63
2022/05/08 12:22:40;;;;;;;8.50;7.60;;;21.80;52.60;;;;;;4993566;28;20390;-62
2022/05/08 12:25:09;;;;;;;8.07;7.28;;;21.80;52.60;;;;;;4993242;28;20414;-62
2022/05/08 12:27:35;;;;;;;8.70;7.80;;;21.80;52.60;;;;;;4994461;28;20493;-62
2022/05/08 12:30:02;;;;;;;7.95;7.15;;;21.80;52.80;;;;;;4990593;28;20785;-62
2022/05/08 12:32:28;;;;;;;8.10;7.30;;;21.80;52.70;;;;;;4981622;28;20397;-62
2022/05/08 12:34:57;;;;;;;8.63;7.72;;;21.80;52.80;;;;;;4983509;28;20406;-62
2022/05/08 12:37:23;;;;;;;8.32;7.43;;;21.80;52.80;;;;;;4984757;28;20400;-62
2022/05/08 12:39:49;;;;;;;8.10;7.30;;;21.80;52.90;;;;;;4981127;28;20388;-62
2022/05/08 12:42:14;;;;;;;8.27;7.37;;;21.80;52.80;;;;;;4983656;28;20406;-62
2022/05/08 12:44:41;;;;;;;8.82;7.28;;;21.80;52.60;;;;;;4984155;28;20399;-62
2022/05/08 12:47:08;;;;;;;7.43;6.72;;;21.80;52.70;;;;;;4981686;28;20423;-62
2022/05/08 12:49:35;;;;;;;8.30;7.50;;;21.80;52.60;;;;;;4983850;28;20407;-63
2022/05/08 12:52:01;;;;;;;7.50;6.70;;;21.80;52.60;;;;;;4984075;28;20393;-62
2022/05/08 12:54:27;;;;;;;7.93;7.22;;;21.90;52.50;;;;;;4982158;28;20400;-63
2022/05/08 12:56:53;;;;;;;6.80;6.20;;;21.80;52.20;;;;;;4981025;28;20476;-63
2022/05/08 13:02:03;;;;;;;7.18;6.47;;;21.80;52.30;;;;;;4993092;28;20773;-62
2022/05/08 13:04:29;;;;;;;7.53;6.83;;;21.80;52.20;;;;;;4993482;28;20406;-62
2022/05/08 13:06:55;;;;;;;7.50;6.80;;;21.80;52.20;;;;;;5007647;28;20402;-62
2022/05/08 13:09:20;;;;;;;6.73;6.13;;;21.80;52.10;;;;;;4993188;28;20409;-62
2022/05/08 13:11:46;;;;;;;7.20;6.50;;;21.80;52.10;;;;;;4993153;28;20894;-62
2022/05/08 13:14:12;;;;;;;7.70;6.90;;;21.80;52.20;;;;;;4993345;28;20424;-62